createdAt,value
2019-04-16T00:00:53.406Z,3.43
2019-04-16T00:01:53.392Z,3.46
2019-04-16T00:02:53.237Z,3.39
2019-04-16T00:03:54.184Z,3.46
2019-04-16T00:04:53.749Z,3.43
2019-04-16T00:05:53.372Z,3.50
2019-04-16T00:06:52.909Z,3.61
2019-04-16T00:07:52.923Z,3.62
2019-04-16T00:08:54.180Z,3.62
2019-04-16T00:09:52.672Z,3.75
2019-04-16T00:10:52.585Z,3.83
2019-04-16T00:11:52.552Z,3.79
2019-04-16T00:12:52.415Z,3.82
2019-04-16T00:13:52.452Z,3.92
2019-04-16T00:14:52.248Z,4.00
2019-04-16T00:15:52.259Z,3.87
2019-04-16T00:16:52.085Z,3.93
2019-04-16T00:17:52.070Z,4.01
2019-04-16T00:18:58.158Z,3.98
2019-04-16T00:19:51.842Z,4.05
2019-04-16T00:20:51.783Z,4.00
2019-04-16T00:21:51.675Z,4.02
2019-04-16T00:22:51.691Z,4.01
2019-04-16T00:23:51.522Z,4.02
2019-04-16T00:24:51.505Z,4.05
2019-04-16T00:25:52.020Z,4.08
2019-04-16T00:26:51.315Z,3.90
2019-04-16T00:27:51.188Z,3.87
2019-04-16T00:28:51.225Z,3.87
2019-04-16T00:29:51.021Z,3.90
2019-04-16T00:30:51.034Z,3.84
2019-04-16T00:31:50.856Z,3.77
2019-04-16T00:32:50.838Z,3.74
2019-04-16T00:33:50.692Z,3.59
2019-04-16T00:34:50.635Z,3.39
2019-04-16T00:35:50.536Z,3.32
2019-04-16T00:36:50.562Z,3.28
2019-04-16T00:37:51.643Z,3.28
2019-04-16T00:38:53.858Z,3.28
2019-04-16T00:39:50.207Z,3.17
2019-04-16T00:40:50.186Z,3.17
2019-04-16T00:41:50.040Z,3.13
2019-04-16T00:42:49.989Z,3.14
2019-04-16T00:43:49.873Z,3.21
2019-04-16T00:44:49.902Z,3.28
2019-04-16T00:45:49.710Z,3.35
2019-04-16T00:46:49.708Z,3.43
2019-04-16T00:47:51.443Z,3.47
2019-04-16T00:48:49.518Z,3.51
2019-04-16T00:49:49.382Z,3.50
2019-04-16T00:50:49.334Z,3.65
2019-04-16T00:51:49.229Z,3.65
2019-04-16T00:52:49.238Z,3.66
2019-04-16T00:53:49.051Z,3.64
2019-04-16T00:54:48.985Z,3.57
2019-04-16T00:55:48.890Z,3.56
2019-04-16T00:56:48.855Z,3.64
2019-04-16T00:57:49.300Z,3.56
2019-04-16T00:58:49.388Z,3.39
2019-04-16T00:59:48.561Z,3.35
2019-04-16T01:00:48.576Z,3.19
2019-04-16T01:01:48.402Z,3.09
2019-04-16T01:02:48.386Z,3.01
2019-04-16T01:03:48.239Z,3.07
2019-04-16T01:04:48.203Z,2.98
2019-04-16T01:05:48.066Z,2.88
2019-04-16T01:06:48.112Z,2.88
2019-04-16T01:07:47.903Z,2.84
2019-04-16T01:08:54.322Z,2.80
2019-04-16T01:09:47.741Z,2.81
2019-04-16T01:10:47.722Z,2.80
2019-04-16T01:11:48.859Z,2.77
2019-04-16T01:12:47.533Z,2.78
2019-04-16T01:13:47.406Z,2.80
2019-04-16T01:14:47.443Z,2.78
2019-04-16T01:15:47.247Z,2.84
2019-04-16T01:16:47.261Z,2.84
2019-04-16T01:17:47.083Z,2.88
2019-04-16T01:18:47.059Z,2.98
2019-04-16T01:19:46.929Z,2.96
2019-04-16T01:20:46.841Z,2.96
2019-04-16T01:21:46.752Z,3.07
2019-04-16T01:22:47.520Z,2.99
2019-04-16T01:23:49.306Z,3.14
2019-04-16T01:24:51.286Z,3.04
2019-04-16T01:25:46.425Z,3.04
2019-04-16T01:26:46.400Z,3.06
2019-04-16T01:27:46.260Z,3.14
2019-04-16T01:28:46.210Z,3.14
2019-04-16T01:29:46.090Z,3.19
2019-04-16T01:30:46.126Z,3.11
2019-04-16T01:31:45.925Z,3.14
2019-04-16T01:32:45.929Z,3.21
2019-04-16T01:33:46.732Z,3.25
2019-04-16T01:34:47.090Z,3.25
2019-04-16T01:35:45.621Z,3.29
2019-04-16T01:36:45.551Z,3.31
2019-04-16T01:37:45.432Z,3.28
2019-04-16T01:38:45.469Z,3.34
2019-04-16T01:39:47.729Z,3.32
2019-04-16T01:40:47.363Z,3.35
2019-04-16T01:41:45.106Z,3.39
2019-04-16T01:42:45.078Z,3.29
2019-04-16T01:43:44.938Z,3.34
2019-04-16T01:44:44.884Z,3.37
2019-04-16T01:45:44.780Z,3.34
2019-04-16T01:46:44.811Z,3.35
2019-04-16T01:47:44.607Z,3.34
2019-04-16T01:48:44.615Z,3.31
2019-04-16T01:49:44.443Z,3.35
2019-04-16T01:50:44.498Z,3.29
2019-04-16T01:51:44.639Z,3.32
2019-04-16T01:52:44.227Z,3.25
2019-04-16T01:53:44.180Z,3.28
2019-04-16T01:54:44.141Z,3.31
2019-04-16T01:55:43.949Z,3.39
2019-04-16T01:56:43.947Z,3.31
2019-04-16T01:57:43.784Z,3.22
2019-04-16T01:58:43.715Z,3.37
2019-04-16T01:59:43.622Z,3.34
2019-04-16T02:00:43.569Z,3.27
2019-04-16T02:01:44.211Z,3.27
2019-04-16T02:02:46.424Z,3.22
2019-04-16T02:03:43.301Z,3.25
2019-04-16T02:04:43.284Z,3.25
2019-04-16T02:05:43.126Z,3.16
2019-04-16T02:06:43.093Z,3.19
2019-04-16T02:07:42.957Z,3.21
2019-04-16T02:08:42.904Z,3.21
2019-04-16T02:09:42.805Z,3.11
2019-04-16T02:10:42.817Z,3.16
2019-04-16T02:11:42.633Z,3.17
2019-04-16T02:12:43.917Z,3.06
2019-04-16T02:13:45.875Z,3.16
2019-04-16T02:14:42.429Z,3.06
2019-04-16T02:15:42.308Z,3.04
2019-04-16T02:16:42.246Z,3.07
2019-04-16T02:17:42.134Z,2.99
2019-04-16T02:18:42.067Z,3.09
2019-04-16T02:19:41.972Z,3.04
2019-04-16T02:20:41.893Z,3.01
2019-04-16T02:21:42.126Z,2.95
2019-04-16T02:22:42.238Z,3.01
2019-04-16T02:23:41.645Z,3.01
2019-04-16T02:24:41.585Z,2.99
2019-04-16T02:25:41.474Z,3.03
2019-04-16T02:26:41.491Z,3.07
2019-04-16T02:27:41.308Z,2.98
2019-04-16T02:28:41.303Z,3.09
2019-04-16T02:29:41.148Z,3.04
2019-04-16T02:30:41.073Z,2.99
2019-04-16T02:31:40.982Z,3.03
2019-04-16T02:32:40.918Z,3.13
2019-04-16T02:33:40.819Z,2.99
2019-04-16T02:34:40.837Z,3.09
2019-04-16T02:35:40.654Z,3.04
2019-04-16T02:36:40.642Z,3.03
2019-04-16T02:37:40.486Z,3.03
2019-04-16T02:38:46.385Z,2.98
2019-04-16T02:39:49.015Z,3.01
2019-04-16T02:40:40.376Z,3.01
2019-04-16T02:41:40.155Z,2.96
2019-04-16T02:42:40.177Z,2.78
2019-04-16T02:43:41.222Z,2.88
2019-04-16T02:44:39.982Z,2.77
2019-04-16T02:45:39.824Z,2.78
2019-04-16T02:46:39.797Z,2.77
2019-04-16T02:47:41.932Z,2.63
2019-04-16T02:48:39.702Z,2.63
2019-04-16T02:49:39.501Z,2.67
2019-04-16T02:50:39.510Z,2.67
2019-04-16T02:51:41.223Z,2.66
2019-04-16T02:52:39.315Z,2.68
2019-04-16T02:53:39.163Z,2.62
2019-04-16T02:54:39.125Z,2.71
2019-04-16T02:55:42.642Z,2.68
2019-04-16T02:56:39.045Z,2.60
2019-04-16T02:57:38.834Z,2.53
2019-04-16T02:58:38.847Z,2.55
2019-04-16T02:59:45.924Z,2.62
2019-04-16T03:00:38.587Z,2.63
2019-04-16T03:01:38.563Z,2.62
2019-04-16T03:02:38.420Z,2.57
2019-04-16T03:03:38.370Z,2.50
2019-04-16T03:04:38.254Z,2.53
2019-04-16T03:05:38.277Z,2.59
2019-04-16T03:06:38.085Z,2.57
2019-04-16T03:07:38.092Z,2.49
2019-04-16T03:08:37.923Z,2.52
2019-04-16T03:09:40.201Z,2.49
2019-04-16T03:10:37.759Z,2.46
2019-04-16T03:11:37.708Z,2.50
2019-04-16T03:12:37.589Z,2.50
2019-04-16T03:13:37.622Z,2.46
2019-04-16T03:14:37.419Z,2.41
2019-04-16T03:15:37.434Z,2.34
2019-04-16T03:16:38.010Z,2.28
2019-04-16T03:17:39.563Z,2.21
2019-04-16T03:18:37.095Z,2.20
2019-04-16T03:19:38.897Z,2.10
2019-04-16T03:20:36.928Z,2.20
2019-04-16T03:21:36.961Z,2.06
2019-04-16T03:22:36.762Z,2.14
2019-04-16T03:23:37.559Z,2.02
2019-04-16T03:24:37.572Z,1.92
2019-04-16T03:25:36.575Z,1.98
2019-04-16T03:26:36.433Z,1.99
2019-04-16T03:27:36.380Z,1.98
2019-04-16T03:28:36.266Z,1.98
2019-04-16T03:29:36.302Z,1.99
2019-04-16T03:30:42.267Z,1.99
2019-04-16T03:31:36.106Z,1.98
2019-04-16T03:32:36.360Z,1.99
2019-04-16T03:33:35.915Z,2.06
2019-04-16T03:34:35.771Z,2.02
2019-04-16T03:35:35.721Z,2.05
2019-04-16T03:36:35.598Z,2.06
2019-04-16T03:37:35.668Z,2.05
2019-04-16T03:38:37.245Z,2.01
2019-04-16T03:39:35.442Z,2.03
2019-04-16T03:40:35.272Z,1.91
2019-04-16T03:41:35.269Z,1.79
2019-04-16T03:42:35.102Z,1.66
2019-04-16T03:43:35.062Z,1.61
2019-04-16T03:44:37.178Z,1.54
2019-04-16T03:45:37.556Z,1.48
2019-04-16T03:46:34.767Z,1.52
2019-04-16T03:47:34.787Z,1.47
2019-04-16T03:48:34.603Z,1.47
2019-04-16T03:49:34.595Z,1.46
2019-04-16T03:50:34.439Z,1.32
2019-04-16T03:51:35.551Z,1.30
2019-04-16T03:52:34.275Z,1.28
2019-04-16T03:53:34.206Z,1.26
2019-04-16T03:54:34.102Z,1.22
2019-04-16T03:55:34.118Z,1.32
2019-04-16T03:56:33.939Z,1.36
2019-04-16T03:57:33.972Z,1.38
2019-04-16T03:58:35.484Z,1.43
2019-04-16T03:59:33.735Z,1.48
2019-04-16T04:00:33.607Z,1.47
2019-04-16T04:01:33.542Z,1.41
2019-04-16T04:02:33.437Z,1.50
2019-04-16T04:03:33.460Z,1.43
2019-04-16T04:04:33.272Z,1.41
2019-04-16T04:05:35.149Z,1.40
2019-04-16T04:06:33.106Z,1.30
2019-04-16T04:07:33.043Z,1.34
2019-04-16T04:08:32.939Z,1.36
2019-04-16T04:09:32.888Z,1.30
2019-04-16T04:10:36.777Z,1.30
2019-04-16T04:11:32.793Z,1.40
2019-04-16T04:12:32.607Z,1.37
2019-04-16T04:13:32.602Z,1.44
2019-04-16T04:14:32.436Z,1.43
2019-04-16T04:15:32.418Z,1.41
2019-04-16T04:16:33.614Z,1.43
2019-04-16T04:17:32.223Z,1.38
2019-04-16T04:18:32.114Z,1.55
2019-04-16T04:19:32.137Z,1.54
2019-04-16T04:20:31.946Z,1.50
2019-04-16T04:21:31.942Z,1.48
2019-04-16T04:22:31.777Z,1.52
2019-04-16T04:23:31.751Z,1.50
2019-04-16T04:24:32.237Z,1.47
2019-04-16T04:25:36.017Z,1.50
2019-04-16T04:26:31.442Z,1.52
2019-04-16T04:27:31.475Z,1.43
2019-04-16T04:28:31.274Z,1.46
2019-04-16T04:29:31.283Z,1.36
2019-04-16T04:30:31.113Z,1.25
2019-04-16T04:31:32.354Z,1.19
2019-04-16T04:32:32.523Z,1.07
2019-04-16T04:33:30.908Z,1.02
2019-04-16T04:34:30.775Z,0.90
2019-04-16T04:35:30.712Z,1.05
2019-04-16T04:36:30.609Z,1.00
2019-04-16T04:37:31.219Z,1.04
2019-04-16T04:38:30.497Z,1.15
2019-04-16T04:39:30.432Z,1.15
2019-04-16T04:40:43.915Z,1.11
2019-04-16T04:41:30.197Z,1.22
2019-04-16T04:42:30.144Z,1.19
2019-04-16T04:43:31.915Z,1.16
2019-04-16T04:44:29.942Z,1.22
2019-04-16T04:45:29.851Z,1.18
2019-04-16T04:46:29.861Z,1.07
2019-04-16T04:47:29.686Z,1.04
2019-04-16T04:48:29.606Z,1.01
2019-04-16T04:49:30.517Z,1.01
2019-04-16T04:50:29.480Z,1.00
2019-04-16T04:51:29.348Z,0.98
2019-04-16T04:52:29.294Z,0.92
2019-04-16T04:53:29.182Z,1.02
2019-04-16T04:54:29.199Z,1.04
2019-04-16T04:55:29.023Z,1.11
2019-04-16T04:56:29.018Z,1.12
2019-04-16T04:57:31.132Z,1.11
2019-04-16T04:58:33.712Z,1.16
2019-04-16T04:59:28.685Z,1.28
2019-04-16T05:00:28.629Z,1.28
2019-04-16T05:01:28.514Z,1.28
2019-04-16T05:02:28.538Z,1.25
2019-04-16T05:03:28.347Z,1.28
2019-04-16T05:04:28.350Z,1.34
2019-04-16T05:05:28.185Z,1.28
2019-04-16T05:06:28.162Z,1.16
2019-04-16T05:07:29.145Z,1.15
2019-04-16T05:08:28.645Z,1.19
2019-04-16T05:09:29.458Z,1.10
2019-04-16T05:10:27.881Z,1.19
2019-04-16T05:11:27.674Z,1.12
2019-04-16T05:12:27.694Z,1.19
2019-04-16T05:13:27.517Z,1.23
2019-04-16T05:14:27.497Z,1.15
2019-04-16T05:15:29.392Z,1.16
2019-04-16T05:16:27.306Z,1.25
2019-04-16T05:17:27.180Z,1.26
2019-04-16T05:18:27.120Z,1.28
2019-04-16T05:19:27.006Z,1.23
2019-04-16T05:20:29.721Z,1.29
2019-04-16T05:21:26.849Z,1.25
2019-04-16T05:22:26.835Z,1.25
2019-04-16T05:23:26.677Z,1.25
2019-04-16T05:24:29.174Z,1.26
2019-04-16T05:25:26.503Z,1.30
2019-04-16T05:26:26.454Z,1.43
2019-04-16T05:27:29.159Z,1.46
2019-04-16T05:28:26.372Z,1.38
2019-04-16T05:29:26.174Z,1.50
2019-04-16T05:30:26.225Z,1.47
2019-04-16T05:31:26.235Z,1.54
2019-04-16T05:32:29.353Z,1.62
2019-04-16T05:33:25.838Z,1.61
2019-04-16T05:34:25.759Z,1.74
2019-04-16T05:35:25.686Z,1.66
2019-04-16T05:36:25.707Z,1.77
2019-04-16T05:37:25.506Z,1.82
2019-04-16T05:38:25.509Z,1.83
2019-04-16T05:39:28.140Z,1.83
2019-04-16T05:40:28.222Z,1.82
2019-04-16T05:41:25.455Z,1.84
2019-04-16T05:42:26.251Z,1.94
2019-04-16T05:43:30.028Z,1.98
2019-04-16T05:44:24.946Z,1.95
2019-04-16T05:45:24.836Z,2.01
2019-04-16T05:46:24.854Z,2.10
2019-04-16T05:47:24.671Z,2.06
2019-04-16T05:48:24.765Z,2.09
2019-04-16T05:49:25.952Z,2.10
2019-04-16T05:50:28.726Z,2.20
2019-04-16T05:51:24.341Z,2.26
2019-04-16T05:52:24.381Z,2.19
2019-04-16T05:53:24.218Z,2.32
2019-04-16T05:54:24.294Z,2.35
2019-04-16T05:55:24.084Z,2.37
2019-04-16T05:56:25.965Z,2.48
2019-04-16T05:57:26.518Z,2.55
2019-04-16T05:58:23.771Z,2.52
2019-04-16T05:59:23.676Z,2.57
2019-04-16T06:00:23.723Z,2.57
2019-04-16T06:01:23.513Z,2.63
2019-04-16T06:02:23.534Z,2.66
2019-04-16T06:03:23.338Z,2.70
2019-04-16T06:04:24.966Z,2.81
2019-04-16T06:05:26.764Z,2.84
2019-04-16T06:06:23.243Z,2.77
2019-04-16T06:07:23.008Z,2.85
2019-04-16T06:08:23.058Z,2.85
2019-04-16T06:09:22.838Z,2.89
2019-04-16T06:10:22.971Z,2.93
2019-04-16T06:11:29.209Z,2.98
2019-04-16T06:12:22.591Z,3.01
2019-04-16T06:13:22.684Z,3.03
2019-04-16T06:14:25.418Z,3.07
2019-04-16T06:15:22.756Z,3.16
2019-04-16T06:16:25.406Z,3.16
2019-04-16T06:17:25.206Z,3.21
2019-04-16T06:18:22.089Z,3.19
2019-04-16T06:19:22.216Z,3.25
2019-04-16T06:20:21.926Z,3.32
2019-04-16T06:21:22.638Z,3.34
2019-04-16T06:22:21.761Z,3.51
2019-04-16T06:23:21.827Z,3.57
2019-04-16T06:24:21.595Z,3.51
2019-04-16T06:25:21.539Z,3.57
2019-04-16T06:26:21.462Z,3.56
2019-04-16T06:27:21.798Z,3.62
2019-04-16T06:28:21.267Z,3.71
2019-04-16T06:29:21.366Z,3.82
2019-04-16T06:30:21.185Z,3.97
2019-04-16T06:31:21.061Z,4.02
2019-04-16T06:32:20.923Z,4.07
2019-04-16T06:33:20.979Z,4.11
2019-04-16T06:34:23.688Z,4.16
2019-04-16T06:35:20.887Z,4.36
2019-04-16T06:36:20.595Z,4.54
2019-04-16T06:37:23.375Z,4.50
2019-04-16T06:38:20.427Z,4.73
2019-04-16T06:39:20.660Z,4.87
2019-04-16T06:40:20.288Z,4.99
2019-04-16T06:41:20.315Z,5.16
2019-04-16T06:42:22.308Z,5.28
2019-04-16T06:43:25.181Z,5.35
2019-04-16T06:44:19.944Z,5.53
2019-04-16T06:45:19.931Z,5.63
2019-04-16T06:46:19.770Z,5.60
2019-04-16T06:47:19.742Z,5.70
2019-04-16T06:48:19.625Z,5.81
2019-04-16T06:49:19.531Z,5.88
2019-04-16T06:50:31.285Z,5.93
2019-04-16T06:51:19.366Z,6.04
2019-04-16T06:52:19.368Z,6.15
2019-04-16T06:53:19.491Z,6.18
2019-04-16T06:54:19.118Z,6.36
2019-04-16T06:55:19.028Z,6.44
2019-04-16T06:56:20.687Z,6.50
2019-04-16T06:57:19.043Z,6.57
2019-04-16T06:58:18.894Z,6.63
2019-04-16T06:59:18.704Z,6.70
2019-04-16T07:00:18.709Z,6.83
2019-04-16T07:01:21.974Z,6.87
2019-04-16T07:02:18.474Z,6.91
2019-04-16T07:03:18.367Z,7.02
2019-04-16T07:04:18.283Z,7.11
2019-04-16T07:05:18.237Z,7.21
2019-04-16T07:06:18.125Z,7.21
2019-04-16T07:07:18.138Z,7.39
2019-04-16T07:08:19.253Z,7.52
2019-04-16T07:09:23.620Z,7.56
2019-04-16T07:10:17.794Z,7.68
2019-04-16T07:11:17.761Z,7.76
2019-04-16T07:12:17.638Z,7.78
2019-04-16T07:13:17.678Z,7.94
2019-04-16T07:14:17.654Z,7.97
2019-04-16T07:15:22.294Z,8.07
2019-04-16T07:16:17.306Z,8.09
2019-04-16T07:17:18.445Z,8.21
2019-04-16T07:18:17.145Z,8.25
2019-04-16T07:19:17.713Z,8.39
2019-04-16T07:20:16.980Z,8.55
2019-04-16T07:21:17.503Z,8.62
2019-04-16T07:22:20.811Z,8.73
2019-04-16T07:23:16.874Z,8.77
2019-04-16T07:24:16.672Z,8.91
2019-04-16T07:25:17.094Z,9.02
2019-04-16T07:26:16.715Z,9.06
2019-04-16T07:27:19.603Z,9.20
2019-04-16T07:28:16.384Z,9.28
2019-04-16T07:29:16.433Z,9.40
2019-04-16T07:30:19.711Z,9.53
2019-04-16T07:31:31.813Z,9.67
2019-04-16T07:32:16.080Z,9.78
2019-04-16T07:33:15.963Z,9.78
2019-04-16T07:34:15.847Z,10.00
2019-04-16T07:35:15.874Z,9.96
2019-04-16T07:36:15.683Z,10.06
2019-04-16T07:37:15.682Z,10.22
2019-04-16T07:38:15.530Z,10.41
2019-04-16T07:39:28.752Z,10.44
2019-04-16T07:40:15.366Z,10.62
2019-04-16T07:41:17.066Z,10.69
2019-04-16T07:42:21.196Z,10.80
2019-04-16T07:43:15.941Z,10.96
2019-04-16T07:44:15.046Z,11.03
2019-04-16T07:45:15.024Z,11.00
2019-04-16T07:46:14.884Z,11.13
2019-04-16T07:47:19.653Z,11.17
2019-04-16T07:48:14.838Z,11.35
2019-04-16T07:49:14.643Z,11.35
2019-04-16T07:50:14.644Z,11.54
2019-04-16T07:51:14.482Z,11.78
2019-04-16T07:52:14.406Z,11.76
2019-04-16T07:53:14.550Z,11.89
2019-04-16T07:54:14.306Z,11.83
2019-04-16T07:55:14.275Z,12.03
2019-04-16T07:56:14.085Z,12.11
2019-04-16T07:57:14.141Z,12.24
2019-04-16T07:58:13.926Z,12.28
2019-04-16T07:59:13.889Z,12.39
2019-04-16T08:00:13.766Z,12.45
2019-04-16T08:01:16.366Z,12.46
2019-04-16T08:02:13.612Z,12.59
2019-04-16T08:03:13.612Z,12.53
2019-04-16T08:04:13.449Z,12.46
2019-04-16T08:05:13.420Z,12.56
2019-04-16T08:06:14.267Z,12.60
2019-04-16T08:07:13.332Z,12.56
2019-04-16T08:08:13.143Z,12.66
2019-04-16T08:09:13.138Z,12.81
2019-04-16T08:10:12.974Z,13.02
2019-04-16T08:11:12.949Z,13.03
2019-04-16T08:12:29.580Z,13.19
2019-04-16T08:13:14.159Z,13.37
2019-04-16T08:14:14.639Z,13.47
2019-04-16T08:15:15.279Z,13.48
2019-04-16T08:16:12.570Z,13.62
2019-04-16T08:17:12.428Z,13.53
2019-04-16T08:18:12.383Z,13.76
2019-04-16T08:19:14.855Z,13.56
2019-04-16T08:20:12.292Z,13.78
2019-04-16T08:21:12.522Z,13.77
2019-04-16T08:22:15.441Z,13.74
2019-04-16T08:23:11.962Z,13.78
2019-04-16T08:24:11.917Z,13.92
2019-04-16T08:25:11.804Z,13.84
2019-04-16T08:26:13.667Z,13.87
2019-04-16T08:27:18.026Z,13.95
2019-04-16T08:28:11.649Z,13.92
2019-04-16T08:29:11.494Z,13.91
2019-04-16T08:30:11.446Z,14.13
2019-04-16T08:31:12.872Z,14.11
2019-04-16T08:32:12.836Z,14.19
2019-04-16T08:33:11.685Z,14.24
2019-04-16T08:34:11.162Z,14.28
2019-04-16T08:35:11.027Z,14.35
2019-04-16T08:36:10.981Z,14.49
2019-04-16T08:37:10.871Z,14.59
2019-04-16T08:38:10.886Z,14.74
2019-04-16T08:39:10.720Z,14.74
2019-04-16T08:40:12.216Z,14.69
2019-04-16T08:41:12.760Z,14.69
2019-04-16T08:42:10.482Z,14.64
2019-04-16T08:43:10.408Z,14.72
2019-04-16T08:44:10.776Z,14.71
2019-04-16T08:45:10.260Z,14.72
2019-04-16T08:46:11.524Z,14.84
2019-04-16T08:47:12.004Z,14.88
2019-04-16T08:48:10.322Z,14.98
2019-04-16T08:49:09.953Z,15.03
2019-04-16T08:50:11.706Z,15.01
2019-04-16T08:51:09.795Z,15.02
2019-04-16T08:52:10.930Z,14.94
2019-04-16T08:53:13.290Z,15.01
2019-04-16T08:54:09.659Z,15.01
2019-04-16T08:55:09.488Z,15.08
2019-04-16T08:56:09.472Z,15.16
2019-04-16T08:57:09.333Z,15.24
2019-04-16T08:58:12.330Z,15.28
2019-04-16T08:59:10.957Z,15.35
2019-04-16T09:00:14.127Z,15.48
2019-04-16T09:01:09.099Z,15.53
2019-04-16T09:02:08.953Z,15.59
2019-04-16T09:03:08.994Z,15.60
2019-04-16T09:04:08.808Z,15.57
2019-04-16T09:05:11.474Z,15.68
2019-04-16T09:06:13.167Z,15.60
2019-04-16T09:07:12.176Z,15.70
2019-04-16T09:08:13.010Z,15.70
2019-04-16T09:09:13.525Z,15.86
2019-04-16T09:10:17.118Z,15.86
2019-04-16T09:11:21.841Z,15.76
2019-04-16T09:12:09.672Z,15.86
2019-04-16T09:13:08.369Z,15.83
2019-04-16T09:14:08.036Z,15.96
2019-04-16T09:15:08.067Z,15.99
2019-04-16T09:16:10.808Z,16.08
2019-04-16T09:17:09.731Z,16.12
2019-04-16T09:18:07.730Z,16.25
2019-04-16T09:19:07.690Z,16.33
2019-04-16T09:20:07.585Z,16.50
2019-04-16T09:21:10.510Z,16.55
2019-04-16T09:22:07.433Z,16.57
2019-04-16T09:23:07.403Z,16.53
2019-04-16T09:24:09.345Z,16.57
2019-04-16T09:25:12.749Z,16.62
2019-04-16T09:26:14.153Z,16.73
2019-04-16T09:27:07.050Z,16.88
2019-04-16T09:28:09.921Z,16.81
2019-04-16T09:29:09.896Z,16.99
2019-04-16T09:30:09.865Z,16.98
2019-04-16T09:31:06.851Z,16.90
2019-04-16T09:32:06.673Z,16.84
2019-04-16T09:33:06.669Z,16.98
2019-04-16T09:34:07.047Z,16.85
2019-04-16T09:35:09.847Z,17.00
2019-04-16T09:36:06.377Z,16.96
2019-04-16T09:37:06.387Z,17.13
2019-04-16T09:38:09.367Z,17.00
2019-04-16T09:39:06.200Z,17.05
2019-04-16T09:40:16.519Z,17.08
2019-04-16T09:41:06.102Z,17.25
2019-04-16T09:42:05.918Z,17.28
2019-04-16T09:43:16.099Z,17.35
2019-04-16T09:44:05.811Z,17.38
2019-04-16T09:45:05.820Z,17.43
2019-04-16T09:46:10.496Z,17.51
2019-04-16T09:47:05.631Z,17.17
2019-04-16T09:48:05.533Z,17.25
2019-04-16T09:49:06.165Z,17.23
2019-04-16T09:50:09.792Z,17.29
2019-04-16T09:51:05.255Z,17.30
2019-04-16T09:52:05.248Z,17.32
2019-04-16T09:53:05.103Z,17.18
2019-04-16T09:54:05.062Z,17.20
2019-04-16T09:55:04.948Z,17.26
2019-04-16T09:56:04.966Z,17.35
2019-04-16T09:57:04.806Z,17.26
2019-04-16T09:58:06.934Z,17.50
2019-04-16T09:59:04.688Z,17.57
2019-04-16T10:00:04.775Z,17.60
2019-04-16T10:01:04.509Z,17.57
2019-04-16T10:02:04.500Z,17.66
2019-04-16T10:03:04.359Z,17.70
2019-04-16T10:04:04.307Z,17.53
2019-04-16T10:05:04.212Z,17.35
2019-04-16T10:06:05.654Z,17.23
2019-04-16T10:07:04.072Z,17.23
2019-04-16T10:08:04.037Z,17.08
2019-04-16T10:09:03.987Z,17.14
2019-04-16T10:10:03.954Z,17.26
2019-04-16T10:11:06.092Z,17.30
2019-04-16T10:12:04.994Z,17.36
2019-04-16T10:13:03.622Z,17.44
2019-04-16T10:14:03.559Z,17.36
2019-04-16T10:15:03.464Z,17.50
2019-04-16T10:16:03.470Z,17.58
2019-04-16T10:17:03.327Z,17.60
2019-04-16T10:18:03.279Z,17.71
2019-04-16T10:19:07.644Z,17.64
2019-04-16T10:20:03.209Z,17.54
2019-04-16T10:21:03.044Z,17.57
2019-04-16T10:22:02.997Z,17.53
2019-04-16T10:23:02.900Z,17.43
2019-04-16T10:24:02.913Z,17.29
2019-04-16T10:25:02.744Z,17.30
2019-04-16T10:26:02.729Z,17.48
2019-04-16T10:27:04.330Z,17.63
2019-04-16T10:28:04.938Z,17.77
2019-04-16T10:29:02.422Z,17.74
2019-04-16T10:30:02.443Z,17.95
2019-04-16T10:31:02.279Z,17.96
2019-04-16T10:32:02.248Z,17.88
2019-04-16T10:33:02.138Z,17.74
2019-04-16T10:34:02.180Z,17.77
2019-04-16T10:35:01.993Z,17.51
2019-04-16T10:36:04.634Z,17.43
2019-04-16T10:37:01.835Z,17.55
2019-04-16T10:38:01.786Z,17.57
2019-04-16T10:39:01.698Z,17.54
2019-04-16T10:40:04.806Z,17.64
2019-04-16T10:41:01.535Z,17.53
2019-04-16T10:42:01.486Z,17.47
2019-04-16T10:43:01.417Z,17.47
2019-04-16T10:44:01.421Z,17.53
2019-04-16T10:45:01.253Z,17.64
2019-04-16T10:46:01.241Z,17.53
2019-04-16T10:47:01.128Z,17.60
2019-04-16T10:48:01.148Z,17.73
2019-04-16T10:49:00.947Z,17.73
2019-04-16T10:50:00.958Z,17.81
2019-04-16T10:51:00.803Z,18.00
2019-04-16T10:52:00.750Z,18.06
2019-04-16T10:53:00.653Z,17.91
2019-04-16T10:54:00.660Z,18.04
2019-04-16T10:55:00.524Z,18.06
2019-04-16T10:56:00.441Z,18.10
2019-04-16T10:57:00.362Z,17.87
2019-04-16T10:58:00.400Z,17.91
2019-04-16T10:59:00.207Z,17.82
2019-04-16T11:00:00.305Z,17.77
2019-04-16T11:01:00.067Z,17.74
2019-04-16T11:02:00.119Z,17.74
2019-04-16T11:02:59.911Z,18.00
2019-04-16T11:04:00.048Z,18.07
2019-04-16T11:05:02.176Z,18.11
2019-04-16T11:05:59.828Z,17.98
2019-04-16T11:06:59.618Z,18.03
2019-04-16T11:07:59.736Z,17.66
2019-04-16T11:08:59.468Z,17.58
2019-04-16T11:09:59.550Z,17.50
2019-04-16T11:10:59.322Z,17.58
2019-04-16T11:11:59.385Z,17.67
2019-04-16T11:12:59.193Z,17.66
2019-04-16T11:14:00.534Z,17.66
2019-04-16T11:14:59.203Z,17.82
2019-04-16T11:15:58.951Z,17.92
2019-04-16T11:16:58.877Z,17.94
2019-04-16T11:17:58.987Z,17.96
2019-04-16T11:18:58.746Z,17.98
2019-04-16T11:20:00.136Z,17.84
2019-04-16T11:20:58.585Z,17.92
2019-04-16T11:21:59.911Z,17.94
2019-04-16T11:22:58.462Z,17.91
2019-04-16T11:23:58.538Z,17.94
2019-04-16T11:24:58.314Z,18.10
2019-04-16T11:25:58.217Z,18.19
2019-04-16T11:26:58.333Z,18.24
2019-04-16T11:27:58.103Z,18.39
2019-04-16T11:28:58.159Z,18.44
2019-04-16T11:29:57.949Z,18.57
2019-04-16T11:30:58.069Z,18.64
2019-04-16T11:31:57.774Z,18.52
2019-04-16T11:32:57.882Z,18.57
2019-04-16T11:33:57.649Z,18.59
2019-04-16T11:34:57.667Z,18.50
2019-04-16T11:35:57.520Z,18.37
2019-04-16T11:36:58.515Z,18.31
2019-04-16T11:37:57.337Z,18.34
2019-04-16T11:38:57.404Z,18.55
2019-04-16T11:39:57.191Z,18.50
2019-04-16T11:40:57.298Z,18.44
2019-04-16T11:41:57.040Z,18.44
2019-04-16T11:42:57.145Z,18.50
2019-04-16T11:43:56.902Z,18.58
2019-04-16T11:44:57.023Z,18.58
2019-04-16T11:45:56.748Z,18.71
2019-04-16T11:46:56.847Z,18.79
2019-04-16T11:47:56.623Z,18.83
2019-04-16T11:48:56.657Z,18.95
2019-04-16T11:49:56.453Z,18.86
2019-04-16T11:50:56.585Z,18.80
2019-04-16T11:51:56.312Z,18.77
2019-04-16T11:52:58.184Z,18.95
2019-04-16T11:53:56.179Z,19.09
2019-04-16T11:54:56.199Z,19.08
2019-04-16T11:55:56.184Z,19.25
2019-04-16T11:56:59.429Z,19.15
2019-04-16T11:57:55.988Z,19.21
2019-04-16T11:58:57.530Z,19.14
2019-04-16T12:00:06.688Z,19.15
2019-04-16T12:00:56.409Z,19.18
2019-04-16T12:01:56.720Z,19.13
2019-04-16T12:02:55.649Z,19.11
2019-04-16T12:03:56.680Z,19.13
2019-04-16T12:04:59.060Z,19.21
2019-04-16T12:05:55.752Z,19.20
2019-04-16T12:06:55.745Z,19.25
2019-04-16T12:07:55.311Z,19.18
2019-04-16T12:08:55.580Z,19.09
2019-04-16T12:09:55.258Z,19.05
2019-04-16T12:10:55.009Z,19.11
2019-04-16T12:11:55.104Z,19.13
2019-04-16T12:12:54.880Z,19.13
2019-04-16T12:13:55.382Z,19.13
2019-04-16T12:14:54.775Z,19.09
2019-04-16T12:15:54.721Z,18.98
2019-04-16T12:16:54.498Z,19.02
2019-04-16T12:17:54.690Z,18.99
2019-04-16T12:18:54.637Z,19.11
2019-04-16T12:19:54.897Z,19.14
2019-04-16T12:20:54.679Z,19.32
2019-04-16T12:21:54.305Z,19.24
2019-04-16T12:22:54.135Z,19.39
2019-04-16T12:23:54.155Z,19.24
2019-04-16T12:24:54.011Z,19.46
2019-04-16T12:25:54.071Z,19.61
2019-04-16T12:26:53.755Z,19.71
2019-04-16T12:27:53.940Z,19.75
2019-04-16T12:28:53.633Z,19.76
2019-04-16T12:29:53.751Z,19.79
2019-04-16T12:30:53.474Z,19.79
2019-04-16T12:31:53.552Z,19.50
2019-04-16T12:32:53.388Z,19.64
2019-04-16T12:33:53.368Z,19.57
2019-04-16T12:34:53.186Z,19.69
2019-04-16T12:35:53.284Z,19.71
2019-04-16T12:36:53.033Z,19.68
2019-04-16T12:37:53.113Z,19.65
2019-04-16T12:38:52.885Z,19.73
2019-04-16T12:39:53.001Z,19.72
2019-04-16T12:40:52.739Z,19.75
2019-04-16T12:41:52.927Z,19.69
2019-04-16T12:42:52.637Z,19.48
2019-04-16T12:43:52.735Z,19.31
2019-04-16T12:44:52.458Z,19.38
2019-04-16T12:45:53.534Z,19.43
2019-04-16T12:46:52.307Z,19.53
2019-04-16T12:47:52.464Z,19.64
2019-04-16T12:48:52.165Z,19.50
2019-04-16T12:49:52.282Z,19.46
2019-04-16T12:50:52.067Z,19.31
2019-04-16T12:51:51.966Z,19.23
2019-04-16T12:52:54.922Z,19.17
2019-04-16T12:53:53.503Z,19.20
2019-04-16T12:54:51.807Z,19.32
2019-04-16T12:55:51.782Z,19.38
2019-04-16T12:56:51.598Z,19.50
2019-04-16T12:57:51.515Z,19.57
2019-04-16T12:58:51.601Z,19.68
2019-04-16T12:59:54.697Z,19.78
2019-04-16T13:00:51.505Z,19.76
2019-04-16T13:01:51.224Z,19.73
2019-04-16T13:02:51.311Z,19.90
2019-04-16T13:03:52.769Z,19.94
2019-04-16T13:04:51.013Z,19.93
2019-04-16T13:05:53.837Z,19.79
2019-04-16T13:06:51.033Z,19.90